sensor_id;sensor_type;location;lat;lon;timestamp;pressure;altitude;pressure_sealevel;temperature;humidity
71642;BME280;60657;50.122;14.468;2023-01-25T00:01:17;100135.21550297865;;;3.0952925917448724;84.26474402990769
71642;BME280;60657;50.122;14.468;2023-01-25T00:04:18;100137.23786814767;;;3.180743114366372;84.10833905546654
71642;BME280;60657;50.122;14.468;2023-01-25T00:07:20;100137.51639279177;;;3.167391470206759;84.0129701686122
71642;BME280;60657;50.122;14.468;2023-01-25T00:10:21;100130.5641094874;;;3.079270618753341;84.31624322880903
71642;BME280;60657;50.122;14.468;2023-01-25T00:13:22;100131.85059213814;;;3.0151827267872164;84.57755397878996
71642;BME280;60657;50.122;14.468;2023-01-25T00:16:28;100141.20775477706;;;2.8976882581826473;84.75112535286488
71642;BME280;60657;50.122;14.468;2023-01-25T00:19:29;100136.94236742196;;;3.0819409475852595;84.60807202258336
71642;BME280;60657;50.122;14.468;2023-01-25T00:22:30;100131.9328890309;;;3.0579079880979663;84.46883344777599
71642;BME280;60657;50.122;14.468;2023-01-25T00:25:31;100134.04029085158;;;3.071259632257572;84.08735790035858
71642;BME280;60657;50.122;14.468;2023-01-25T00:28:33;100122.40605341113;;;3.0739299610894975;84.10833905546654
71642;BME280;60657;50.122;14.468;2023-01-25T00:31:36;100120.91597762181;;;3.3009079118028524;83.75165941863126
71642;BME280;60657;50.122;14.468;2023-01-25T00:34:46;100127.09616993494;;;3.290226596475165;83.44266422522317
71642;BME280;60657;50.122;14.468;2023-01-25T00:37:48;100116.94748414322;;;3.364995803768977;83.19279774166476
71642;BME280;60657;50.122;14.468;2023-01-25T00:40:53;100117.39700462988;;;3.3329518577859147;83.36827649347677
71642;BME280;60657;50.122;14.468;2023-01-25T00:43:54;100122.64646471837;;;3.362325474937059;83.14320592050049
71642;BME280;60657;50.122;14.468;2023-01-25T00:46:56;100120.02178109168;;;3.3543144884412897;83.10505836575875
71642;BME280;60657;50.122;14.468;2023-01-25T00:49:57;100126.56855588706;;;3.4504463263904768;83.08789196612497
71642;BME280;60657;50.122;14.468;2023-01-25T00:52:58;100124.87186130323;;;3.402380407415883;83.13748378728924
71642;BME280;60657;50.122;14.468;2023-01-25T00:55:59;100115.78035748856;;;3.3169298847943836;83.3053330281529
71642;BME280;60657;50.122;14.468;2023-01-25T00:59:00;100113.71352439457;;;3.407721065079727;83.13748378728924
71642;BME280;60657;50.122;14.468;2023-01-25T01:02:02;100125.74737611851;;;3.511863889524683;82.92767223620966
71642;BME280;60657;50.122;14.468;2023-01-25T01:05:03;100122.27517144285;;;3.4851606012054646;83.03639276722362
71642;BME280;60657;50.122;14.468;2023-01-25T01:08:05;100120.12580818597;;;3.567940794995039;82.5690852216373
71642;BME280;60657;50.122;14.468;2023-01-25T01:11:07;100116.94748414322;;;3.3890287632562774;82.87808041504539
71642;BME280;60657;50.122;14.468;2023-01-25T01:14:10;100121.23792388923;;;3.2715342946517154;83.32249942778668
71642;BME280;60657;50.122;14.468;2023-01-25T01:17:19;100120.30920409928;;;3.223468375677122;83.53803311207751
71642;BME280;60657;50.122;14.468;2023-01-25T01:20:20;100121.55855601498;;;3.402380407415883;83.27481498435951
71642;BME280;60657;50.122;14.468;2023-01-25T01:23:21;100116.54871609027;;;3.37834744792859;83.0096894789044
71642;BME280;60657;50.122;14.468;2023-01-25T01:26:22;100122.77385588828;;;3.3382925154497585;83.20805676356146
71642;BME280;60657;50.122;14.468;2023-01-25T01:29:24;100112.91526128133;;;3.2661936369878717;83.52277409018082
71642;BME280;60657;50.122;14.468;2023-01-25T01:32:25;100114.81582667184;;;3.2047760738536653;83.51514457923247
71642;BME280;60657;50.122;14.468;2023-01-25T01:35:27;100115.29957025246;;;3.2955672541390086;83.67727168688486
71642;BME280;60657;50.122;14.468;2023-01-25T01:38:28;100119.70174292408;;;3.2635233081559463;83.58953231097887
71642;BME280;60657;50.122;14.468;2023-01-25T01:41:30;100117.07654300705;;;3.252841992828259;83.3053330281529
71642;BME280;60657;50.122;14.468;2023-01-25T01:44:41;100107.05755593497;;;3.2555123216601842;83.5246814679179
71642;BME280;60657;50.122;14.468;2023-01-25T01:47:46;100104.14453198234;;;3.2955672541390086;83.23857480735485
71642;BME280;60657;50.122;14.468;2023-01-25T01:50:50;100110.7706752428;;;3.3543144884412897;83.14511329823759
71642;BME280;60657;50.122;14.468;2023-01-25T01:53:59;100109.07419931226;;;3.343633173113602;83.06881818875411
71642;BME280;60657;50.122;14.468;2023-01-25T01:57:10;100106.60936460138;;;3.3543144884412897;83.2462043183032
71642;BME280;60657;50.122;14.468;2023-01-25T02:00:16;100104.22423991052;;;3.3756771190966646;82.89524681467918
71642;BME280;60657;50.122;14.468;2023-01-25T02:03:23;100105.39040602624;;;3.474479285877777;82.78080415045396
71642;BME280;60657;50.122;14.468;2023-01-25T02:06:27;100104.08980120425;;;3.4905012588693083;82.56527046616311
71642;BME280;60657;50.122;14.468;2023-01-25T02:09:37;100097.85602500278;;;3.5732814526588825;82.3630884260319
71642;BME280;60657;50.122;14.468;2023-01-25T02:12:39;100101.86066661384;;;3.4905012588693083;82.30205233844511
71642;BME280;60657;50.122;14.468;2023-01-25T02:15:43;100103.08364244287;;;3.4637979705500896;82.45082780193789
71642;BME280;60657;50.122;14.468;2023-01-25T02:18:46;100098.01270651887;;;3.5599298084992768;82.27153429465172
71642;BME280;60657;50.122;14.468;2023-01-25T02:21:47;100098.07409755456;;;3.429083695735102;82.74074921797512
71642;BME280;60657;50.122;14.468;2023-01-25T02:24:58;100091.68416458022;;;3.458457312886246;82.64728770885786
71642;BME280;60657;50.122;14.468;2023-01-25T02:28:03;100093.69438690707;;;3.562600137331195;82.3916990920882
71642;BME280;60657;50.122;14.468;2023-01-25T02:31:10;100096.62914167184;;;3.5812924391546517;82.0102235446708
71642;BME280;60657;50.122;14.468;2023-01-25T02:34:11;100098.16905904144;;;3.5732814526588825;82.29442282749676
71642;BME280;60657;50.122;14.468;2023-01-25T02:37:13;100100.93392324062;;;3.482490272373539;82.07888914320593
71642;BME280;60657;50.122;14.468;2023-01-25T02:40:15;100083.06220229925;;;3.546578164339664;82.1837949187457
71642;BME280;60657;50.122;14.468;2023-01-25T02:43:16;100087.22368483641;;;3.5786221103227263;82.11894407568475
71642;BME280;60657;50.122;14.468;2023-01-25T02:46:19;100092.38936092533;;;3.6079957274738703;82.00068665598535
71642;BME280;60657;50.122;14.468;2023-01-25T02:49:24;100082.52596651064;;;3.58396276798657;82.04646372167544
71642;BME280;60657;50.122;14.468;2023-01-25T02:52:25;100066.88319556229;;;3.6106660563057886;81.861448081178
71642;BME280;60657;50.122;14.468;2023-01-25T02:55:26;100064.40936674456;;;3.407721065079727;82.58434424353399
71642;BME280;60657;50.122;14.468;2023-01-25T02:58:28;100071.27012965275;;;3.525215533684289;82.17235065232319
71642;BME280;60657;50.122;14.468;2023-01-25T03:01:29;100060.94911484048;;;3.509193560692758;82.26962691691463
71642;BME280;60657;50.122;14.468;2023-01-25T03:04:30;100053.62936069281;;;3.5652704661631205;82.14564736400396
71642;BME280;60657;50.122;14.468;2023-01-25T03:07:31;100054.24438086846;;;3.634699015793089;81.93011367971313
71642;BME280;60657;50.122;14.468;2023-01-25T03:10:32;100047.31048679056;;;3.4985122453650703;81.96063172350652
71642;BME280;60657;50.122;14.468;2023-01-25T03:13:34;100048.3016906484;;;3.3730067902647463;82.35164415960936
71642;BME280;60657;50.122;14.468;2023-01-25T03:16:36;100037.29243680822;;;3.479819943541621;82.50423437857633
71642;BME280;60657;50.122;14.468;2023-01-25T03:19:37;100041.37764718509;;;3.613336385137714;82.12085145342184
71642;BME280;60657;50.122;14.468;2023-01-25T03:22:38;100041.45443821435;;;3.546578164339664;82.03501945525292
71642;BME280;60657;50.122;14.468;2023-01-25T03:25:41;100032.8255560215;;;3.511863889524683;82.29633020523384
71642;BME280;60657;50.122;14.468;2023-01-25T03:28:43;100021.4986558076;;;3.562600137331195;82.2162203402762
71642;BME280;60657;50.122;14.468;2023-01-25T03:31:44;100022.57524010802;;;3.533226520180058;82.15899900816358
71642;BME280;60657;50.122;14.468;2023-01-25T03:34:45;100019.03301991132;;;3.5145342183566015;82.34019989318685
71642;BME280;60657;50.122;14.468;2023-01-25T03:37:46;100026.35324669335;;;3.4985122453650703;82.28679331654841
71642;BME280;60657;50.122;14.468;2023-01-25T03:40:48;100019.41434532829;;;3.5786221103227263;82.02738994430457
71642;BME280;60657;50.122;14.468;2023-01-25T03:43:49;100016.18429644327;;;3.423743038071258;82.53475242236972
71642;BME280;60657;50.122;14.468;2023-01-25T03:46:50;100020.03634049438;;;3.399710078583965;82.66636148622874
71642;BME280;60657;50.122;14.468;2023-01-25T03:49:51;100008.86510024851;;;3.3169298847943836;83.01541161211567
71642;BME280;60657;50.122;14.468;2023-01-25T03:52:53;100011.10004170163;;;3.423743038071258;82.8761730373083
71642;BME280;60657;50.122;14.468;2023-01-25T03:55:55;100008.78828411589;;;3.4718089570458517;82.85709925993744
71642;BME280;60657;50.122;14.468;2023-01-25T03:58:58;100008.24692539543;;;3.509193560692758;82.49279011215381
71642;BME280;60657;50.122;14.468;2023-01-25T04:02:00;100007.55214152044;;;3.5145342183566015;82.70450904097048
71642;BME280;60657;50.122;14.468;2023-01-25T04:05:01;100008.86489122549;;;3.511863889524683;82.47180895704585
71642;BME280;60657;50.122;14.468;2023-01-25T04:08:02;100003.85761969512;;;3.4691386282139334;82.69497215228503
71642;BME280;60657;50.122;14.468;2023-01-25T04:11:05;100001.00889825729;;;3.4184023804074144;82.95437552452887
71642;BME280;60657;50.122;14.468;2023-01-25T04:14:09;100000.39189952085;;;3.4264133669031835;82.803692683299
71642;BME280;60657;50.122;14.468;2023-01-25T04:17:11;99998.77397021044;;;3.4424353398947147;82.8494697489891
71642;BME280;60657;50.122;14.468;2023-01-25T04:20:13;99998.77397021044;;;3.4691386282139334;82.76745250629435
71642;BME280;60657;50.122;14.468;2023-01-25T04:23:14;99998.6964647273;;;3.3169298847943836;83.17372396429388
71642;BME280;60657;50.122;14.468;2023-01-25T04:26:15;99996.221913049;;;3.1326771953917785;83.95002670328832
71642;BME280;60657;50.122;14.468;2023-01-25T04:29:16;99994.4597070151;;;3.2154573891813527;83.67536430914778
71642;BME280;60657;50.122;14.468;2023-01-25T04:32:18;99980.13517966264;;;3.3463035019455276;83.48844129091326
71642;BME280;60657;50.122;14.468;2023-01-25T04:35:19;99983.83013234807;;;3.423743038071258;83.14511329823759
71642;BME280;60657;50.122;14.468;2023-01-25T04:38:21;99989.1470058683;;;3.3329518577859147;83.42931258106356
71642;BME280;60657;50.122;14.468;2023-01-25T04:41:22;99992.15019317047;;;3.2955672541390086;83.33966582742046
71642;BME280;60657;50.122;14.468;2023-01-25T04:44:25;99986.29521304293;;;3.4504463263904768;83.30151827267872
71642;BME280;60657;50.122;14.468;2023-01-25T04:47:27;99987.60637221114;;;3.362325474937059;83.48462653543908
71642;BME280;60657;50.122;14.468;2023-01-25T04:50:29;99983.28792200888;;;3.4344243533989456;83.08979934386205
71642;BME280;60657;50.122;14.468;2023-01-25T04:53:30;99987.2951148704;;;3.386358434424352;82.8761730373083
71642;BME280;60657;50.122;14.468;2023-01-25T04:56:32;99985.3715371991;;;3.3916990920881958;83.08026245517662
71642;BME280;60657;50.122;14.468;2023-01-25T04:59:33;99991.53099526768;;;3.3596551461051334;83.08598458838789
71642;BME280;60657;50.122;14.468;2023-01-25T05:02:34;99984.13504572518;;;3.343633173113602;83.13176165407798
71642;BME280;60657;50.122;14.468;2023-01-25T05:05:35;99969.49446527094;;;3.298237582970934;83.21759365224689
71642;BME280;60657;50.122;14.468;2023-01-25T05:08:37;99982.288478402;;;3.399710078583965;83.00396734569314
71642;BME280;60657;50.122;14.468;2023-01-25T05:11:38;99972.6642743332;;;3.26886396581979;83.32249942778668
71642;BME280;60657;50.122;14.468;2023-01-25T05:14:39;99978.74726099253;;;3.260852979324028;83.3930724040589
71642;BME280;60657;50.122;14.468;2023-01-25T05:17:41;99973.0465476709;;;3.2074464026855907;83.47508964675364
71642;BME280;60657;50.122;14.468;2023-01-25T05:20:42;99970.893325035;;;3.218127718013278;83.47699702449073
71642;BME280;60657;50.122;14.468;2023-01-25T05:23:43;99976.74652106063;;;3.2207980468451964;83.51323720149539
71642;BME280;60657;50.122;14.468;2023-01-25T05:26:45;99970.73964448756;;;3.1914244296940595;83.6734569314107
71642;BME280;60657;50.122;14.468;2023-01-25T05:29:46;99977.51686152033;;;3.231479362172884;83.56664377813382
71642;BME280;60657;50.122;14.468;2023-01-25T05:32:48;99969.35247684424;;;3.2448310063324968;83.41023880369268
71642;BME280;60657;50.122;14.468;2023-01-25T05:35:50;99971.50982671606;;;3.167391470206759;83.63530937666896
71642;BME280;60657;50.122;14.468;2023-01-25T05:38:53;99973.20413044118;;;3.1406881818875405;83.70969710841536
71642;BME280;60657;50.122;14.468;2023-01-25T05:41:55;99972.35697653446;;;3.0766002899214158;83.789806973373
71642;BME280;60657;50.122;14.468;2023-01-25T05:44:57;99980.44312430198;;;3.049897001602197;83.81460288395513
71642;BME280;60657;50.122;14.468;2023-01-25T05:47:58;99971.20118294621;;;3.02052338445106;83.94430457007705
71642;BME280;60657;50.122;14.468;2023-01-25T05:50:59;99975.12733123753;;;2.99649042496376;84.07209887846189
71642;BME280;60657;50.122;14.468;2023-01-25T05:54:01;99982.28584325017;;;3.0071717402914473;83.95002670328832
71642;BME280;60657;50.122;14.468;2023-01-25T05:57:02;99979.35259199685;;;3.0071717402914473;83.99008163576714
71642;BME280;60657;50.122;14.468;2023-01-25T06:00:04;99975.507449333;;;3.055237659266041;83.86228732738232
71642;BME280;60657;50.122;14.468;2023-01-25T06:03:07;99975.81918795424;;;3.0819409475852595;83.96528572518501
71642;BME280;60657;50.122;14.468;2023-01-25T06:06:09;99970.87936945006;;;2.8923476005188036;84.63859006637675
71642;BME280;60657;50.122;14.468;2023-01-25T06:09:10;99969.95347239208;;;2.828259708552679;84.77019913023575
71642;BME280;60657;50.122;14.468;2023-01-25T06:12:12;99974.3470852382;;;2.852292668039979;84.79880979629206
71642;BME280;60657;50.122;14.468;2023-01-25T06:15:14;99972.5739811723;;;2.8763256275272724;84.7034409094377
71642;BME280;60657;50.122;14.468;2023-01-25T06:18:17;99983.80671722183;;;2.764171816586554;84.74731059739071
71642;BME280;60657;50.122;14.468;2023-01-25T06:21:18;99977.95389831236;;;2.822919050888835;84.6614785992218
71642;BME280;60657;50.122;14.468;2023-01-25T06:24:20;99988.41570746752;;;2.777523460746167;84.91515983825437
71642;BME280;60657;50.122;14.468;2023-01-25T06:27:21;99979.17300171242;;;2.7748531319142415;84.89417868314641
71642;BME280;60657;50.122;14.468;2023-01-25T06:30:23;99973.02764362952;;;2.8042267490653856;84.90371557183184
71642;BME280;60657;50.122;14.468;2023-01-25T06:33:24;99968.02253817763;;;2.8549629968718975;84.67864499885557
71642;BME280;60657;50.122;14.468;2023-01-25T06:36:29;99965.79563266571;;;2.8469520103761354;84.61951628900587
71642;BME280;60657;50.122;14.468;2023-01-25T06:39:31;99964.17965694188;;;2.814908064393073;84.93423361562523
71642;BME280;60657;50.122;14.468;2023-01-25T06:42:32;99956.6330323239;;;2.873655298695354;84.56801709010452
71642;BME280;60657;50.122;14.468;2023-01-25T06:45:34;99966.40677937468;;;2.8309300373846042;84.82742046234836
71642;BME280;60657;50.122;14.468;2023-01-25T06:48:35;99959.2531533324;;;2.865644312199585;84.46692607003891
71642;BME280;60657;50.122;14.468;2023-01-25T06:51:36;99956.55447313424;;;2.9003585870145727;84.5870908674754
71642;BME280;60657;50.122;14.468;2023-01-25T06:54:38;99952.25357474216;;;3.0178530556191348;84.1598382543679
71642;BME280;60657;50.122;14.468;2023-01-25T06:57:39;99952.87356539063;;;3.049897001602197;84.10643167772946
71642;BME280;60657;50.122;14.468;2023-01-25T07:00:40;99951.79460509575;;;2.9644464789806975;84.22278171969177
71642;BME280;60657;50.122;14.468;2023-01-25T07:03:42;99957.25855290433;;;2.975127794308385;84.13885709925994
71642;BME280;60657;50.122;14.468;2023-01-25T07:06:43;99957.18064997974;;;3.025864042114904;84.31624322880903
71642;BME280;60657;50.122;14.468;2023-01-25T07:09:44;99949.86776792943;;;2.919050888838022;84.44403753719386
71642;BME280;60657;50.122;14.468;2023-01-25T07:12:46;99949.32195127086;;;2.9056992446784164;84.52986953536278
71642;BME280;60657;50.122;14.468;2023-01-25T07:15:51;99958.48431404395;;;2.865644312199585;84.6290531776913
71642;BME280;60657;50.122;14.468;2023-01-25T07:18:53;99956.09926610399;;;2.860303654535741;84.59662775616083
71642;BME280;60657;50.122;14.468;2023-01-25T07:21:55;99957.63710730318;;;2.88700694285496;84.4974441138323
71642;BME280;60657;50.122;14.468;2023-01-25T07:24:56;99960.39681595929;;;2.820248722056917;84.85603112840467
71642;BME280;60657;50.122;14.468;2023-01-25T07:27:58;99952.71057589338;;;2.8549629968718975;84.63477531090257
71642;BME280;60657;50.122;14.468;2023-01-25T07:31:02;99947.47094621349;;;2.8042267490653856;84.69390402075227
71642;BME280;60657;50.122;14.468;2023-01-25T07:34:04;99950.68062943671;;;2.6573586633096795;85.27183947508965
71642;BME280;60657;50.122;14.468;2023-01-25T07:37:06;99942.30955827993;;;2.740138857099261;84.92851148241398
71642;BME280;60657;50.122;14.468;2023-01-25T07:40:08;99936.14344432404;;;2.7668421454184795;84.78355077439537
71642;BME280;60657;50.122;14.468;2023-01-25T07:43:10;99942.85753814655;;;2.878995956359198;84.59090562294956
71642;BME280;60657;50.122;14.468;2023-01-25T07:46:12;99942.24409834194;;;2.9858091096360724;84.39253833829251
71642;BME280;60657;50.122;14.468;2023-01-25T07:49:14;99941.24134949646;;;2.9137102311741785;84.42114900434882
71642;BME280;60657;50.122;14.468;2023-01-25T07:52:15;99949.02067714478;;;2.932402532997635;84.40588998245212
71642;BME280;60657;50.122;14.468;2023-01-25T07:55:17;99939.85834716145;;;2.9484245059891663;84.39253833829251
71642;BME280;60657;50.122;14.468;2023-01-25T07:58:18;99933.77374361757;;;2.895017929350729;84.52033264667735
71642;BME280;60657;50.122;14.468;2023-01-25T08:01:20;99934.08443248467;;;2.9056992446784164;84.37727931639581
71642;BME280;60657;50.122;14.468;2023-01-25T08:04:23;99941.1695551888;;;3.028534370946822;84.00534065766385
71642;BME280;60657;50.122;14.468;2023-01-25T08:07:26;99946.47942936825;;;2.9350728618295534;83.75547417410544
71642;BME280;60657;50.122;14.468;2023-01-25T08:10:29;99951.32857988589;;;2.9938200961318344;83.90043488212406
71642;BME280;60657;50.122;14.468;2023-01-25T08:13:30;99948.79258329718;;;3.130006866559853;83.60288395513848
71642;BME280;60657;50.122;14.468;2023-01-25T08:16:32;99930.92718867309;;;3.1540398260471534;83.45792324711987
71642;BME280;60657;50.122;14.468;2023-01-25T08:19:34;99937.39614248228;;;3.1326771953917785;83.15846494239719
71642;BME280;60657;50.122;14.468;2023-01-25T08:22:35;99926.84568845376;;;3.196765087357903;83.18326085297933
71642;BME280;60657;50.122;14.468;2023-01-25T08:25:37;99918.98592258479;;;3.210116731517509;82.94483863584344
71642;BME280;60657;50.122;14.468;2023-01-25T08:28:38;99921.07056807788;;;3.1540398260471534;83.28244449530786
71642;BME280;60657;50.122;14.468;2023-01-25T08:31:40;99920.37597910089;;;3.26886396581979;82.90478370336461
71642;BME280;60657;50.122;14.468;2023-01-25T08:34:42;99911.57179716341;;;3.340962844281684;82.70260166323338
71642;BME280;60657;50.122;14.468;2023-01-25T08:37:44;99913.96213185402;;;3.386358434424352;82.69115739681087
71642;BME280;60657;50.122;14.468;2023-01-25T08:40:45;99912.4929346143;;;3.423743038071258;82.33638513771267
71642;BME280;60657;50.122;14.468;2023-01-25T08:43:47;99909.47854108183;;;3.4985122453650703;82.14946211947814
71642;BME280;60657;50.122;14.468;2023-01-25T08:46:48;99899.6910482753;;;3.407721065079727;82.4069581139849
71642;BME280;60657;50.122;14.468;2023-01-25T08:49:50;99906.31475981575;;;3.4050507362478086;82.23720149538414
71642;BME280;60657;50.122;14.468;2023-01-25T08:52:51;99905.94403464235;;;3.4397650110627893;82.13420309758145
71642;BME280;60657;50.122;14.468;2023-01-25T08:55:53;99908.40918540905;;;3.327611200122071;82.53284504463264
71642;BME280;60657;50.122;14.468;2023-01-25T08:58:54;99902.78084389867;;;3.4397650110627893;82.1704432745861
71642;BME280;60657;50.122;14.468;2023-01-25T09:01:56;99891.07913278589;;;3.3916990920881958;82.2429236285954
71642;BME280;60657;50.122;14.468;2023-01-25T09:04:57;99889.05671801511;;;3.445105668726633;82.17998016327154
71642;BME280;60657;50.122;14.468;2023-01-25T09:07:59;99889.4604239807;;;3.3836881055924337;82.30777447165637
71642;BME280;60657;50.122;14.468;2023-01-25T09:11:01;99884.38227186151;;;3.4317540245670273;81.86717021438926
71642;BME280;60657;50.122;14.468;2023-01-25T09:14:04;99885.74499485908;;;3.5305561913481327;81.95490959029526
71642;BME280;60657;50.122;14.468;2023-01-25T09:17:06;99878.34878943012;;;3.5011825741969957;81.91676203555352
71642;BME280;60657;50.122;14.468;2023-01-25T09:20:09;99868.07805171945;;;3.6026550698100266;81.93202105745021
71642;BME280;60657;50.122;14.468;2023-01-25T09:23:11;99869.62496075599;;;3.656061646448464;81.52574959945068
71642;BME280;60657;50.122;14.468;2023-01-25T09:26:13;99871.17162053607;;;3.509193560692758;81.64209964141298
71642;BME280;60657;50.122;14.468;2023-01-25T09:29:15;99876.94895252142;;;3.474479285877777;81.71839475089646
71642;BME280;60657;50.122;14.468;2023-01-25T09:32:16;99869.55218581538;;;3.4718089570458517;81.61158159761959
71642;BME280;60657;50.122;14.468;2023-01-25T09:35:17;99875.66328308798;;;3.4477759975585585;81.78896772716868
71642;BME280;60657;50.122;14.468;2023-01-25T09:38:19;99874.96388433813;;;3.4718089570458517;81.97589074540322
71642;BME280;60657;50.122;14.468;2023-01-25T09:41:24;99869.62496075599;;;3.525215533684289;82.07316700999466
71642;BME280;60657;50.122;14.468;2023-01-25T09:44:50;99873.92829449057;;;3.562600137331195;81.92629892423895
71642;BME280;60657;50.122;14.468;2023-01-25T09:48:12;99877.50255704313;;;3.482490272373539;81.95872434576944
71642;BME280;60657;50.122;14.468;2023-01-25T09:51:28;99871.65237150245;;;3.5652704661631205;82.12085145342184
71642;BME280;60657;50.122;14.468;2023-01-25T09:54:42;99863.07410510526;;;3.5786221103227263;82.05027847714962
71642;BME280;60657;50.122;14.468;2023-01-25T09:57:47;99863.7237260074;;;3.605325398641945;81.87479972533761
71642;BME280;60657;50.122;14.468;2023-01-25T10:00:53;99853.85900682147;;;3.62668802929732;81.81757839322499
71642;BME280;60657;50.122;14.468;2023-01-25T10:04:09;99850.90353460729;;;3.744182497901882;81.29114213778897
71642;BME280;60657;50.122;14.468;2023-01-25T10:07:19;99845.2666816082;;;3.802929732204163;81.02601663233386
71642;BME280;60657;50.122;14.468;2023-01-25T10:10:29;99839.48785952199;;;3.6881055924315262;80.93446250095369
71642;BME280;60657;50.122;14.468;2023-01-25T10:13:37;99843.4332280934;;;3.709468223086901;81.0374608987564
71642;BME280;60657;50.122;14.468;2023-01-25T10:16:43;99833.70913058885;;;3.760204470893413;81.08514534218357
71642;BME280;60657;50.122;14.468;2023-01-25T10:20:02;99835.25916931196;;;3.7468528267338073;80.94972152285038
71642;BME280;60657;50.122;14.468;2023-01-25T10:23:25;99829.97204819127;;;3.6881055924315262;80.9897764553292
71642;BME280;60657;50.122;14.468;2023-01-25T10:26:42;99821.30633926293;;;3.794918745708401;80.69031815060654
71642;BME280;60657;50.122;14.468;2023-01-25T10:29:49;99825.81452646387;;;3.8136110475318503;80.60448615243763
71642;BME280;60657;50.122;14.468;2023-01-25T10:32:57;99824.1825032637;;;3.677424277103839;80.69985503929198
71642;BME280;60657;50.122;14.468;2023-01-25T10:36:08;99824.59523332618;;;3.621347371633476;80.92111085679407
71642;BME280;60657;50.122;14.468;2023-01-25T10:39:15;99815.91921720511;;;3.5065232318608395;81.32356755931944
71642;BME280;60657;50.122;14.468;2023-01-25T10:42:19;99814.37295505161;;;3.4611276417181642;81.77943083848325
71642;BME280;60657;50.122;14.468;2023-01-25T10:45:26;99816.2095539461;;;3.525215533684289;81.094682230869
71642;BME280;60657;50.122;14.468;2023-01-25T10:48:29;99816.76503667957;;;3.4557869840543205;81.10421911955444
71642;BME280;60657;50.122;14.468;2023-01-25T10:51:35;99801.49199548924;;;3.4985122453650703;81.16144045166705
71642;BME280;60657;50.122;14.468;2023-01-25T10:54:37;99811.29574691472;;;3.65072098878462;80.98786907759212
71642;BME280;60657;50.122;14.468;2023-01-25T10:57:41;99797.20771251476;;;3.7495231555657256;80.62737468528267
71642;BME280;60657;50.122;14.468;2023-01-25T11:00:43;99799.8141505152;;;3.7922484168764754;80.0933089188983
71642;BME280;60657;50.122;14.468;2023-01-25T11:03:51;99795.51445065449;;;3.6961165789272883;80.28023193713283